Time;durP1;ratioP1;P1;durP2;ratioP2;P2;SDS_P1;SDS_P2;PMS_P1;PMS_P2;Temp;Humidity;BMP_temperature;BMP_pressure;BME280_temperature;BME280_humidity;BME280_pressure;Samples;Min_cycle;Max_cycle;Signal;HPM_P1;HPM_P2
2021/04/22 04:58:27;;;;;;;;;;;;;;;10.10;71.91;97692.33;1724476;77;20466;-61
2021/04/22 05:00:55;;;;;;;;;;;;;;;10.12;72.26;97684.22;1730831;79;20439;-62
2021/04/22 05:03:23;;;;;;;;;;;;;;;10.15;71.63;97680.61;1725471;80;20550;-63
2021/04/22 05:05:51;;;;;;;;;;;;;;;10.21;71.44;97670.98;1718041;81;21851;-64
2021/04/22 05:08:19;;;;;;;;;;;;;;;10.27;71.65;97674.45;1717099;81;20680;-62
2021/04/22 05:10:47;;;;;;;;;;;;;;;10.32;71.89;97667.42;1715805;82;20387;-62
2021/04/22 05:13:16;;;;;;;;;;;;;;;10.39;72.05;97666.72;1712586;81;20482;-62
2021/04/22 05:15:46;;;;;;;;;;;;;;;10.45;71.81;97670.99;1723106;80;20238;-64
2021/04/22 05:18:14;;;;;;;;;;;;;;;10.52;71.28;97676.85;1730907;79;20914;-65
2021/04/22 05:20:41;;;;;;;;;;;;;;;10.56;71.40;97678.48;1708466;81;21027;-63
2021/04/22 05:23:10;;;;;;;;;;;;;;;10.63;71.01;97680.92;1689084;81;20571;-66
2021/04/22 05:25:37;;;;;;;;;;;;;;;10.68;70.50;97683.59;1670230;83;20569;-65
2021/04/22 05:28:05;;;;;;;;;;;;;;;10.73;68.24;97679.73;1676043;83;20769;-63
2021/04/22 05:30:33;;;;;;;;;;;;;;;10.80;65.74;97691.64;1683316;83;20974;-65
2021/04/22 05:33:01;;;;;;;;;;;;;;;10.90;66.51;97690.93;1714701;81;20497;-67
2021/04/22 05:35:29;;;;;;;;;;;;;;;10.97;66.80;97687.58;1732438;80;20569;-68
2021/04/22 05:37:58;;;;;;;;;;;;;;;11.01;66.63;97693.16;1727074;80;20401;-63
2021/04/22 05:40:26;;;;;;;;;;;;;;;11.05;65.63;97693.71;1725111;80;20489;-64
2021/04/22 05:42:54;;;;;;;;;;;;;;;11.12;65.45;97685.09;1722109;80;20568;-64
2021/04/22 05:45:21;;;;;;;;;;;;;;;11.19;65.55;97691.47;1739416;80;20589;-64
2021/04/22 05:47:49;;;;;;;;;;;;;;;11.28;65.66;97693.92;1735387;78;20209;-67
2021/04/22 05:50:17;;;;;;;;;;;;;;;11.37;65.40;97680.59;1701816;81;20419;-67
2021/04/22 05:52:45;;;;;;;;;;;;;;;11.45;65.24;97688.55;1708287;81;20629;-63
2021/04/22 05:55:13;;;;;;;;;;;;;;;11.52;64.55;97689.92;1697220;81;21779;-65
2021/04/22 05:57:41;;;;;;;;;;;;;;;11.60;63.45;97687.31;1736472;80;20474;-67
2021/04/22 06:00:11;;;;;;;;;;;;;;;11.67;62.74;97690.00;1728436;80;20376;-67
2021/04/22 06:02:39;;;;;;;;;;;;;;;11.73;62.45;97692.17;1737823;80;20543;-64
2021/04/22 06:05:08;;;;;;;;;;;;;;;11.78;62.25;97700.13;1730596;80;20654;-63
2021/04/22 06:07:35;;;;;;;;;;;;;;;11.79;62.08;97703.03;1743739;79;20786;-64
2021/04/22 06:10:04;;;;;;;;;;;;;;;11.81;62.47;97698.31;1725458;79;20503;-63
2021/04/22 06:12:32;;;;;;;;;;;;;;;11.84;62.16;97702.27;1734453;80;20474;-64
2021/04/22 06:15:02;;;;;;;;;;;;;;;11.85;62.43;97700.70;1737712;79;20504;-69
2021/04/22 06:17:30;;;;;;;;;;;;;;;11.87;62.65;97697.30;1729565;80;20500;-63
2021/04/22 06:19:58;;;;;;;;;;;;;;;11.89;62.44;97704.40;1717568;80;21412;-66
2021/04/22 06:22:26;;;;;;;;;;;;;;;11.93;62.43;97698.91;1729433;80;20737;-67
2021/04/22 06:24:53;;;;;;;;;;;;;;;12.01;62.50;97699.75;1716041;80;20289;-66
2021/04/22 06:27:21;;;;;;;;;;;;;;;12.13;61.65;97702.97;1719680;80;20783;-65
2021/04/22 06:29:49;;;;;;;;;;;;;;;12.28;61.01;97707.53;1712488;81;20963;-67
2021/04/22 06:32:17;;;;;;;;;;;;;;;12.43;61.18;97703.65;1705716;80;21737;-65
2021/04/22 06:34:46;;;;;;;;;;;;;;;12.60;60.10;97703.98;1702904;80;20478;-69
2021/04/22 06:37:14;;;;;;;;;;;;;;;12.76;60.28;97697.69;1731612;80;20574;-67
2021/04/22 06:39:42;;;;;;;;;;;;;;;12.92;58.94;97700.64;1704719;80;20482;-66
2021/04/22 06:42:09;;;;;;;;;;;;;;;13.03;58.91;97696.98;1721494;80;20485;-66
2021/04/22 06:44:37;;;;;;;;;;;;;;;13.14;58.76;97698.59;1729877;80;21785;-68
2021/04/22 06:47:05;;;;;;;;;;;;;;;13.26;58.98;97699.13;1726676;79;20470;-69
2021/04/22 06:49:33;;;;;;;;;;;;;;;13.41;58.97;97693.07;1732231;80;20579;-66
2021/04/22 06:52:01;;;;;;;;;;;;;;;13.55;58.38;97688.05;1734058;78;20588;-68
2021/04/22 06:54:29;;;;;;;;;;;;;;;13.66;58.48;97690.44;1725050;79;20602;-66
2021/04/22 06:56:57;;;;;;;;;;;;;;;13.79;57.75;97687.77;1719875;80;22254;-71
2021/04/22 06:59:26;;;;;;;;;;;;;;;13.90;57.66;97686.69;1734309;80;20497;-72
2021/04/22 07:01:53;;;;;;;;;;;;;;;13.99;57.40;97691.70;1728020;80;20565;-68
2021/04/22 07:04:21;;;;;;;;;;;;;;;14.03;56.27;97694.08;1725251;80;20367;-72
2021/04/22 07:06:49;;;;;;;;;;;;;;;14.01;55.27;97692.23;1727909;80;21014;-70
2021/04/22 07:09:18;;;;;;;;;;;;;;;13.94;55.41;97689.60;1732432;79;21881;-69
2021/04/22 07:11:46;;;;;;;;;;;;;;;13.91;55.52;97693.55;1733663;80;20602;-68
2021/04/22 07:14:13;;;;;;;;;;;;;;;13.90;55.55;97693.29;1722003;81;20198;-69
2021/04/22 07:16:41;;;;;;;;;;;;;;;13.89;55.79;97695.70;1727704;79;20677;-70
2021/04/22 07:19:11;;;;;;;;;;;;;;;13.88;55.57;97688.83;1729075;80;21030;-69
2021/04/22 07:21:39;;;;;;;;;;;;;;;13.92;55.72;97691.18;1729745;80;22478;-68
2021/04/22 07:24:08;;;;;;;;;;;;;;;13.98;55.15;97692.75;1713849;80;20488;-71
2021/04/22 07:26:36;;;;;;;;;;;;;;;14.02;55.84;97687.73;1732413;79;20516;-64
2021/04/22 07:29:04;;;;;;;;;;;;;;;14.10;56.87;97688.52;1722264;80;20614;-66
2021/04/22 07:31:33;;;;;;;;;;;;;;;14.17;55.79;97686.91;1733622;78;20730;-67
2021/04/22 07:34:01;;;;;;;;;;;;;;;14.20;54.36;97684.50;1741891;79;22302;-65
2021/04/22 07:36:30;;;;;;;;;;;;;;;14.22;54.02;97686.36;1734450;80;20607;-67
2021/04/22 07:39:00;;;;;;;;;;;;;;;14.24;54.73;97682.92;1671267;82;20588;-69
2021/04/22 07:41:28;;;;;;;;;;;;;;;14.31;54.59;97688.71;1729745;80;20484;-67
2021/04/22 07:43:56;;;;;;;;;;;;;;;14.40;54.10;97691.63;1732216;79;20923;-68
2021/04/22 07:46:23;;;;;;;;;;;;;;;14.47;53.88;97692.13;1730231;80;20853;-66
2021/04/22 07:48:52;;;;;;;;;;;;;;;14.57;54.40;97693.92;1734730;80;20503;-68
2021/04/22 07:51:20;;;;;;;;;;;;;;;14.69;53.04;97690.44;1726714;80;20490;-65
2021/04/22 07:53:48;;;;;;;;;;;;;;;14.74;53.05;97690.41;1732331;80;20670;-69
2021/04/22 07:56:15;;;;;;;;;;;;;;;14.80;52.75;97691.95;1714784;78;20574;-68
2021/04/22 07:58:43;;;;;;;;;;;;;;;14.78;51.76;97698.05;1719356;80;21907;-65
2021/04/22 08:01:12;;;;;;;;;;;;;;;14.76;51.76;97698.87;1737734;80;20671;-64
2021/04/22 08:03:40;;;;;;;;;;;;;;;14.71;51.60;97697.02;1718262;80;20251;-65
2021/04/22 08:06:10;;;;;;;;;;;;;;;14.68;51.67;97701.55;1727415;80;20576;-69
2021/04/22 08:08:42;;;;;;;;;;;;;;;14.69;52.46;97703.14;1721937;80;20555;-66
2021/04/22 08:11:10;;;;;;;;;;;;;;;14.73;52.64;97698.08;1730450;80;22085;-70
2021/04/22 08:13:37;;;;;;;;;;;;;;;14.77;51.96;97698.58;1732307;80;20487;-62
2021/04/22 08:16:06;;;;;;;;;;;;;;;14.77;52.02;97701.22;1732917;80;20496;-64
2021/04/22 08:18:34;;;;;;;;;;;;;;;14.75;51.88;97700.72;1732812;79;20529;-63
2021/04/22 08:21:02;;;;;;;;;;;;;;;14.77;51.99;97700.43;1737186;79;20747;-64
2021/04/22 08:23:32;;;;;;;;;;;;;;;14.80;52.09;97695.40;1733261;79;21872;-65
2021/04/22 08:26:01;;;;;;;;;;;;;;;14.87;52.04;97695.09;1734417;80;20565;-64
2021/04/22 08:28:30;;;;;;;;;;;;;;;14.96;51.69;97693.99;1716946;80;20487;-70
2021/04/22 08:31:00;;;;;;;;;;;;;;;15.03;52.17;97691.83;1725310;80;20798;-66
2021/04/22 08:33:29;;;;;;;;;;;;;;;15.09;51.34;97695.49;1718475;80;20794;-65
2021/04/22 08:35:57;;;;;;;;;;;;;;;15.14;50.59;97695.98;1734863;79;21853;-71
2021/04/22 08:38:25;;;;;;;;;;;;;;;15.13;50.35;97699.16;1707329;81;20169;-69
2021/04/22 08:40:53;;;;;;;;;;;;;;;15.10;50.96;97696.28;1710648;81;20495;-67
2021/04/22 08:43:21;;;;;;;;;;;;;;;15.08;50.80;97693.91;1677753;83;20398;-66
2021/04/22 08:45:49;;;;;;;;;;;;;;;15.12;51.36;97697.60;1683508;81;20751;-74
2021/04/22 08:48:17;;;;;;;;;;;;;;;15.17;50.47;97688.30;1696929;81;20744;-68
2021/04/22 08:50:48;;;;;;;;;;;;;;;15.20;50.22;97696.20;1703062;82;20384;-64
2021/04/22 08:53:18;;;;;;;;;;;;;;;15.27;51.31;97693.27;1710401;81;20390;-65
2021/04/22 08:55:47;;;;;;;;;;;;;;;15.33;51.30;97703.55;1700964;81;20527;-67
2021/04/22 08:58:15;;;;;;;;;;;;;;;15.37;49.82;97701.13;1708621;80;20781;-70
2021/04/22 09:00:51;;;;;;;;;;;;;;;15.39;50.30;97693.17;1684858;80;21890;-63
2021/04/22 09:03:27;;;;;;;;;;;;;;;15.48;51.09;97694.70;1698598;81;20614;-69
2021/04/22 09:05:55;;;;;;;;;;;;;;;15.59;51.33;97700.19;1716386;80;20612;-68
2021/04/22 09:08:44;;;;;;;;;;;;;;;15.70;49.67;97699.05;1710103;80;20581;-67
2021/04/22 09:11:13;;;;;;;;;;;;;;;15.78;49.19;97681.73;1725468;81;20720;-68
2021/04/22 09:13:41;;;;;;;;;;;;;;;15.87;49.42;97684.83;1711184;81;22239;-67
2021/04/22 09:16:15;;;;;;;;;;;;;;;15.94;49.90;97680.52;1713509;81;20556;-68
2021/04/22 09:18:51;;;;;;;;;;;;;;;15.93;48.08;97679.72;1720310;80;20532;-67
2021/04/22 09:21:30;;;;;;;;;;;;;;;15.93;48.98;97688.20;1716579;80;20348;-66
2021/04/22 09:24:12;;;;;;;;;;;;;;;15.99;49.05;97686.55;1715020;81;20652;-65
2021/04/22 09:26:50;;;;;;;;;;;;;;;16.09;48.70;97679.03;1733277;80;21891;-69
2021/04/22 09:29:46;;;;;;;;;;;;;;;16.13;48.37;97674.77;1717205;80;20542;-64
2021/04/22 09:32:17;;;;;;;;;;;;;;;16.15;48.78;97674.46;1727184;80;33623;-62
2021/04/22 09:34:56;;;;;;;;;;;;;;;16.20;48.02;97670.45;1734811;80;20532;-63
2021/04/22 09:37:38;;;;;;;;;;;;;;;16.26;48.05;97666.66;1731902;80;20620;-64
2021/04/22 09:40:19;;;;;;;;;;;;;;;16.32;47.53;97662.88;1731769;80;21892;-63
2021/04/22 09:42:47;;;;;;;;;;;;;;;16.32;46.64;97664.99;1728968;78;20479;-64
2021/04/22 09:45:18;;;;;;;;;;;;;;;16.26;46.10;97668.78;1713103;79;20505;-63
2021/04/22 09:47:48;;;;;;;;;;;;;;;16.17;46.21;97659.86;1729541;80;20584;-64
2021/04/22 09:50:21;;;;;;;;;;;;;;;16.06;45.80;97653.64;1736413;79;20851;-65
2021/04/22 09:52:53;;;;;;;;;;;;;;;15.94;46.59;97660.10;1737792;79;22053;-64
2021/04/22 09:55:24;;;;;;;;;;;;;;;15.86;47.46;97651.44;1723871;80;20519;-65
2021/04/22 09:57:52;;;;;;;;;;;;;;;15.83;46.31;97651.22;1720812;79;20458;-63
2021/04/22 10:00:27;;;;;;;;;;;;;;;15.72;46.30;97647.87;1720193;79;20593;-66
2021/04/22 10:02:57;;;;;;;;;;;;;;;15.56;46.40;97643.24;1727789;79;20575;-67
2021/04/22 10:05:28;;;;;;;;;;;;;;;15.48;46.91;97644.38;1734994;80;21890;-64
2021/04/22 10:08:07;;;;;;;;;;;;;;;15.41;47.04;97639.94;1734947;80;20585;-64
2021/04/22 10:10:36;;;;;;;;;;;;;;;15.37;48.09;97636.24;1746572;80;20375;-66
2021/04/22 10:13:10;;;;;;;;;;;;;;;15.36;47.88;97638.10;1738995;80;20514;-69
2021/04/22 10:15:54;;;;;;;;;;;;;;;15.36;47.98;97635.45;1734154;80;20229;-63
2021/04/22 10:18:39;;;;;;;;;;;;;;;15.36;47.13;97635.45;1730910;80;21903;-64
2021/04/22 10:21:07;;;;;;;;;;;;;;;15.35;47.24;97635.19;1722006;80;20644;-71
2021/04/22 10:23:35;;;;;;;;;;;;;;;15.38;47.78;97617.44;1734072;80;20545;-66
2021/04/22 10:26:21;;;;;;;;;;;;;;;15.49;47.44;97618.12;1725286;80;20483;-68
2021/04/22 10:28:50;;;;;;;;;;;;;;;15.68;47.57;97609.77;1724982;80;20552;-63
2021/04/22 10:31:28;;;;;;;;;;;;;;;15.91;46.45;97608.21;1736653;80;21262;-65
2021/04/22 10:33:55;;;;;;;;;;;;;;;16.09;46.64;97608.78;1731564;80;20553;-64
2021/04/22 10:36:24;;;;;;;;;;;;;;;16.28;46.78;97602.20;1702791;80;20721;-67
2021/04/22 10:38:53;;;;;;;;;;;;;;;16.46;45.88;97592.67;1729405;80;20321;-62
2021/04/22 10:41:20;;;;;;;;;;;;;;;16.61;45.62;97593.83;1721470;80;20602;-63
2021/04/22 10:43:48;;;;;;;;;;;;;;;16.75;45.59;97601.31;1725200;79;22047;-63
2021/04/22 10:46:18;;;;;;;;;;;;;;;16.90;44.49;97597.11;1732851;80;20491;-63
2021/04/22 10:48:46;;;;;;;;;;;;;;;17.03;43.88;97607.53;1730337;79;20444;-65
2021/04/22 10:51:14;;;;;;;;;;;;;;;17.12;43.34;97588.54;1740584;80;20608;-67
2021/04/22 10:53:43;;;;;;;;;;;;;;;17.19;42.38;97603.56;1717800;81;20587;-67
2021/04/22 10:56:11;;;;;;;;;;;;;;;17.24;44.54;97592.84;1660223;83;21830;-66
2021/04/22 10:58:42;;;;;;;;;;;;;;;17.39;43.64;97587.28;1668842;83;20511;-65
2021/04/22 11:01:11;;;;;;;;;;;;;;;17.50;43.31;97587.91;1723430;80;20467;-65
2021/04/22 11:03:42;;;;;;;;;;;;;;;17.48;43.58;97604.12;1724101;80;20516;-64
2021/04/22 11:06:14;;;;;;;;;;;;;;;17.31;44.27;97616.37;1711638;80;20679;-64
2021/04/22 11:08:48;;;;;;;;;;;;;;;16.83;45.35;97617.13;1717530;80;22017;-65
2021/04/22 11:11:35;;;;;;;;;;;;;;;16.27;46.58;97636.42;1717509;80;20644;-64
2021/04/22 11:14:09;;;;;;;;;;;;;;;15.74;47.25;97622.42;1727170;79;20479;-64
2021/04/22 11:16:39;;;;;;;;;;;;;;;15.26;48.20;97628.14;1723218;80;20633;-63
2021/04/22 11:19:23;;;;;;;;;;;;;;;14.83;49.44;97647.23;1717765;81;20502;-62
2021/04/22 11:21:54;;;;;;;;;;;;;;;14.53;50.49;97639.47;1705006;82;21961;-64
2021/04/22 11:24:27;;;;;;;;;;;;;;;14.26;51.04;97638.52;1716701;80;20670;-62
2021/04/22 11:27:10;;;;;;;;;;;;;;;14.07;51.89;97627.73;1716256;80;20487;-65
2021/04/22 11:29:58;;;;;;;;;;;;;;;14.00;50.94;97629.08;1700692;81;20581;-67
2021/04/22 11:32:34;;;;;;;;;;;;;;;14.03;50.32;97625.91;1700972;81;20641;-65
2021/04/22 11:35:14;;;;;;;;;;;;;;;14.12;49.70;97622.95;1697587;81;22065;-67
2021/04/22 11:37:44;;;;;;;;;;;;;;;14.23;50.05;97616.57;1705254;80;20593;-65
2021/04/22 11:40:14;;;;;;;;;;;;;;;14.38;48.04;97615.75;1722514;80;20461;-65
2021/04/22 11:42:48;;;;;;;;;;;;;;;14.48;47.30;97610.95;1725794;81;20477;-64
2021/04/22 11:45:20;;;;;;;;;;;;;;;14.50;47.48;97617.52;1702570;81;20484;-65
2021/04/22 11:47:56;;;;;;;;;;;;;;;14.49;47.86;97615.14;1718579;80;21804;-68
2021/04/22 11:50:30;;;;;;;;;;;;;;;14.46;48.52;97605.92;1702027;80;20683;-66
2021/04/22 11:52:58;;;;;;;;;;;;;;;14.44;49.78;97606.72;1722386;80;20703;-65
2021/04/22 11:55:32;;;;;;;;;;;;;;;14.43;50.57;97607.78;1732798;80;20297;-63
2021/04/22 11:58:18;;;;;;;;;;;;;;;14.49;49.92;97608.00;1704559;80;20504;-71
2021/04/22 12:00:48;;;;;;;;;;;;;;;14.58;51.15;97609.02;1733756;80;21953;-66
2021/04/22 12:03:18;;;;;;;;;;;;;;;14.76;51.17;97599.13;1676274;82;20624;-67
2021/04/22 12:05:46;;;;;;;;;;;;;;;14.97;50.89;97595.02;1701643;80;20526;-66
2021/04/22 12:08:15;;;;;;;;;;;;;;;15.17;50.53;97590.88;1686452;81;20327;-63
2021/04/22 12:10:47;;;;;;;;;;;;;;;15.30;50.09;97582.28;1716820;80;20548;-64
2021/04/22 12:13:18;;;;;;;;;;;;;;;15.42;49.96;97585.87;1711044;80;22193;-68
2021/04/22 12:15:48;;;;;;;;;;;;;;;15.48;50.18;97580.81;1704677;82;20586;-67
2021/04/22 12:18:29;;;;;;;;;;;;;;;15.49;49.86;97579.18;1708038;80;20414;-70
2021/04/22 12:21:11;;;;;;;;;;;;;;;15.51;49.80;97571.75;1702012;80;20489;-68
2021/04/22 12:23:43;;;;;;;;;;;;;;;15.52;49.49;97570.69;1714364;81;20931;-67
2021/04/22 12:26:19;;;;;;;;;;;;;;;15.51;49.54;97573.61;1659038;83;21202;-65
2021/04/22 12:29:02;;;;;;;;;;;;;;;15.46;49.93;97578.44;1733587;80;20547;-64
2021/04/22 12:31:34;;;;;;;;;;;;;;;15.36;49.93;97574.55;1715059;80;20233;-64
2021/04/22 12:34:17;;;;;;;;;;;;;;;15.26;50.68;97581.81;1731292;80;20572;-63
2021/04/22 12:36:59;;;;;;;;;;;;;;;15.14;50.99;97589.56;1732562;80;21045;-64
2021/04/22 12:39:35;;;;;;;;;;;;;;;15.06;51.66;97598.09;1727956;80;21887;-61
2021/04/22 12:42:06;;;;;;;;;;;;;;;14.96;52.24;97611.42;1739013;80;20745;-61
2021/04/22 12:44:36;;;;;;;;;;;;;;;14.76;54.55;97618.98;1740441;79;20491;-62
2021/04/22 12:47:05;;;;;;;;;;;;;;;14.52;56.14;97624.66;1740496;79;20489;-65
2021/04/22 12:49:33;;;;;;;;;;;;;;;14.20;58.29;97630.84;1715116;81;20673;-66
2021/04/22 12:52:01;;;;;;;;;;;;;;;13.88;60.71;97628.06;1710137;80;22086;-65
2021/04/22 12:54:29;;;;;;;;;;;;;;;13.69;62.35;97633.63;1711466;80;20475;-62
2021/04/22 12:56:56;;;;;;;;;;;;;;;13.55;63.54;97637.88;1714563;81;20611;-66
2021/04/22 12:59:24;;;;;;;;;;;;;;;13.42;64.18;97635.78;1691571;81;20452;-66
2021/04/22 13:01:52;;;;;;;;;;;;;;;13.32;63.47;97633.97;1672853;82;20707;-63
2021/04/22 13:04:20;;;;;;;;;;;;;;;13.23;62.01;97630.27;1721552;80;22107;-64
2021/04/22 13:06:48;;;;;;;;;;;;;;;13.16;62.04;97640.30;1697628;80;20511;-68
2021/04/22 13:09:16;;;;;;;;;;;;;;;13.10;62.10;97642.64;1728335;80;20301;-63
2021/04/22 13:11:44;;;;;;;;;;;;;;;13.05;61.96;97644.72;1678690;83;20594;-64
2021/04/22 13:14:12;;;;;;;;;;;;;;;13.04;61.91;97655.56;1721453;80;20560;-63
2021/04/22 13:16:49;;;;;;;;;;;;;;;13.01;60.37;97669.27;1725898;80;20721;-66
2021/04/22 13:19:19;;;;;;;;;;;;;;;12.98;60.48;97669.78;1726060;80;20637;-61
2021/04/22 13:21:58;;;;;;;;;;;;;;;12.95;59.83;97680.34;1708623;80;20397;-64
2021/04/22 13:24:28;;;;;;;;;;;;;;;12.93;59.64;97682.97;1711245;81;20493;-67
2021/04/22 13:27:03;;;;;;;;;;;;;;;12.88;60.13;97693.78;1670607;82;20604;-63
2021/04/22 13:29:33;;;;;;;;;;;;;;;12.79;61.65;97703.77;1677671;82;20498;-67
2021/04/22 13:32:08;;;;;;;;;;;;;;;12.59;62.58;97720.33;1689659;82;20652;-65
2021/04/22 13:34:50;;;;;;;;;;;;;;;12.38;65.72;97729.99;1681164;81;20223;-64
2021/04/22 13:37:19;;;;;;;;;;;;;;;12.14;68.27;97719.58;1702421;81;20500;-62
2021/04/22 13:39:48;;;;;;;;;;;;;;;11.90;70.20;97706.52;1667729;82;20567;-65
2021/04/22 13:42:28;;;;;;;;;;;;;;;11.68;71.29;97702.13;1720847;80;22219;-68
2021/04/22 13:44:57;;;;;;;;;;;;;;;11.53;72.94;97678.33;1728832;80;20266;-60
2021/04/22 13:47:25;;;;;;;;;;;;;;;11.39;74.52;97673.22;1718979;79;20515;-68
2021/04/22 13:49:55;;;;;;;;;;;;;;;11.28;75.34;97649.99;1728555;80;20517;-66
2021/04/22 13:52:24;;;;;;;;;;;;;;;11.19;75.70;97631.77;1717441;80;20584;-62
2021/04/22 13:54:54;;;;;;;;;;;;;;;11.14;78.53;97592.28;1702828;81;22045;-65
2021/04/22 13:57:23;;;;;;;;;;;;;;;11.08;80.01;97618.80;1713406;81;20604;-65
